Time;durP1;ratioP1;P1;durP2;ratioP2;P2;SDS_P1;SDS_P2;PMS_P1;PMS_P2;Temp;Humidity;BMP_temperature;BMP_pressure;BME280_temperature;BME280_humidity;BME280_pressure;Samples;Min_cycle;Max_cycle;Signal;HPM_P1;HPM_P2
2023/08/16 00:02:19;;;;;;;14.52;11.80;;;;;;;;;;5033922;28;20112;-74
2023/08/16 00:04:45;;;;;;;15.52;10.55;;;;;;;;;;5049100;28;20013;-74
2023/08/16 00:07:11;;;;;;;10.23;9.07;;;;;;;;;;5033641;28;20087;-74
2023/08/16 00:09:38;;;;;;;12.90;8.85;;;;;;;;;;5033875;28;20431;-74
2023/08/16 00:12:04;;;;;;;13.25;8.65;;;;;;;;;;5033770;28;20403;-74
2023/08/16 00:14:30;;;;;;;13.00;8.27;;;;;;;;;;5033680;28;20056;-74
2023/08/16 00:16:57;;;;;;;10.88;7.78;;;;;;;;;;5033621;28;20057;-74
2023/08/16 00:19:24;;;;;;;12.02;8.07;;;;;;;;;;5033811;28;20079;-74
2023/08/16 00:21:50;;;;;;;15.63;8.18;;;;;;;;;;5033481;28;20056;-74
2023/08/16 00:24:16;;;;;;;12.80;8.15;;;;;;;;;;5032168;28;20022;-74
2023/08/16 00:26:42;;;;;;;12.25;8.23;;;;;;;;;;5033292;28;20530;-74
2023/08/16 00:29:08;;;;;;;10.45;8.05;;;;;;;;;;5033364;28;20030;-74
2023/08/16 00:31:34;;;;;;;9.10;7.18;;;;;;;;;;5033340;28;20078;-74
2023/08/16 00:34:00;;;;;;;11.63;9.30;;;;;;;;;;5032057;28;20053;-74
2023/08/16 00:36:26;;;;;;;13.65;9.23;;;;;;;;;;5032396;28;20376;-74
2023/08/16 00:38:52;;;;;;;10.85;7.95;;;;;;;;;;5033184;28;20032;-74
2023/08/16 00:41:19;;;;;;;11.90;8.98;;;;;;;;;;5033125;28;20029;-74
2023/08/16 00:43:45;;;;;;;12.80;8.80;;;;;;;;;;5033381;28;20021;-74
2023/08/16 00:46:12;;;;;;;11.10;8.73;;;;;;;;;;5032922;28;20087;-74
2023/08/16 00:48:39;;;;;;;14.95;9.60;;;;;;;;;;5032891;28;20029;-74
2023/08/16 00:51:06;;;;;;;14.80;9.32;;;;;;;;;;5032934;28;20053;-74
2023/08/16 00:53:32;;;;;;;12.00;9.45;;;;;;;;;;5032925;28;20041;-74
2023/08/16 00:55:59;;;;;;;10.30;8.07;;;;;;;;;;5032893;28;20060;-74
2023/08/16 00:58:26;;;;;;;12.18;8.85;;;;;;;;;;5032843;28;20113;-74
2023/08/16 01:00:52;;;;;;;17.52;9.50;;;;;;;;;;5032757;28;20053;-74
2023/08/16 01:03:18;;;;;;;13.25;10.10;;;;;;;;;;5031895;28;20436;-74
2023/08/16 01:05:44;;;;;;;13.15;9.43;;;;;;;;;;5032705;28;20536;-74
2023/08/16 01:08:10;;;;;;;10.73;9.35;;;;;;;;;;5032621;28;20033;-75
2023/08/16 01:10:42;;;;;;;16.10;9.52;;;;;;;;;;5032597;28;20120;-74
2023/08/16 01:13:11;;;;;;;14.77;9.55;;;;;;;;;;5032564;28;20519;-74
2023/08/16 01:15:39;;;;;;;13.05;9.45;;;;;;;;;;5032574;28;20026;-74
2023/08/16 01:18:06;;;;;;;11.02;8.75;;;;;;;;;;5032579;28;20084;-74
2023/08/16 01:20:32;;;;;;;14.52;9.30;;;;;;;;;;5032479;28;20408;-74
2023/08/16 01:23:07;;;;;;;14.00;9.43;;;;;;;;;;5032475;28;20033;-74
2023/08/16 01:25:35;;;;;;;15.07;9.52;;;;;;;;;;5032387;28;20049;-74
2023/08/16 01:28:01;;;;;;;13.95;9.30;;;;;;;;;;5032299;28;20495;-74
2023/08/16 01:30:28;;;;;;;15.95;9.57;;;;;;;;;;5032410;28;20026;-74
2023/08/16 01:32:54;;;;;;;14.45;10.43;;;;;;;;;;5031838;28;20041;-74
2023/08/16 01:35:21;;;;;;;13.60;9.65;;;;;;;;;;5032331;28;20084;-74
2023/08/16 01:37:47;;;;;;;17.45;9.85;;;;;;;;;;5032345;28;20028;-74
2023/08/16 01:40:13;;;;;;;16.00;8.60;;;;;;;;;;5032305;28;20083;-74
2023/08/16 01:42:41;;;;;;;12.82;9.70;;;;;;;;;;5032170;28;20029;-74
2023/08/16 01:45:07;;;;;;;14.02;9.50;;;;;;;;;;5032283;28;20538;-74
2023/08/16 01:47:34;;;;;;;14.15;10.18;;;;;;;;;;5032130;28;20539;-74
2023/08/16 01:50:00;;;;;;;15.77;10.38;;;;;;;;;;5032214;28;20075;-74
2023/08/16 01:52:26;;;;;;;13.48;9.27;;;;;;;;;;5032273;28;20044;-75
2023/08/16 01:54:52;;;;;;;15.02;8.82;;;;;;;;;;5032255;28;20068;-74
2023/08/16 01:57:18;;;;;;;16.95;9.48;;;;;;;;;;5032228;28;20112;-74
2023/08/16 01:59:44;;;;;;;14.80;9.65;;;;;;;;;;5032144;28;20144;-74
2023/08/16 02:02:10;;;;;;;15.77;9.18;;;;;;;;;;5032249;28;20032;-74
2023/08/16 02:04:36;;;;;;;14.18;9.40;;;;;;;;;;5032175;28;20380;-74
2023/08/16 02:07:02;;;;;;;12.93;9.30;;;;;;;;;;5032078;28;20029;-74
2023/08/16 02:09:28;;;;;;;16.88;10.23;;;;;;;;;;5032126;28;20480;-74
2023/08/16 02:11:54;;;;;;;13.88;8.43;;;;;;;;;;5032134;28;20522;-74
2023/08/16 02:14:21;;;;;;;15.57;9.50;;;;;;;;;;5034031;28;20029;-74
2023/08/16 02:16:47;;;;;;;16.10;9.68;;;;;;;;;;5036070;28;20366;-74
2023/08/16 02:19:13;;;;;;;15.20;9.88;;;;;;;;;;5035838;28;20037;-74
2023/08/16 02:21:38;;;;;;;14.02;9.27;;;;;;;;;;5035837;28;20028;-74
2023/08/16 02:24:05;;;;;;;15.18;9.43;;;;;;;;;;5035785;28;20075;-74
2023/08/16 02:26:31;;;;;;;13.38;8.95;;;;;;;;;;5036032;28;20030;-74
2023/08/16 02:28:57;;;;;;;13.88;8.95;;;;;;;;;;5035679;28;20026;-74
2023/08/16 02:31:23;;;;;;;13.65;7.65;;;;;;;;;;5035709;28;20101;-74
2023/08/16 02:33:49;;;;;;;11.50;8.70;;;;;;;;;;5035373;28;20041;-74
2023/08/16 02:36:15;;;;;;;13.18;8.68;;;;;;;;;;5035574;28;20032;-74
2023/08/16 02:38:41;;;;;;;14.90;9.23;;;;;;;;;;5035462;28;20025;-74
2023/08/16 02:41:07;;;;;;;7.43;6.57;;;;;;;;;;5035446;28;20053;-75
2023/08/16 02:43:33;;;;;;;9.48;6.55;;;;;;;;;;5035394;28;20104;-74
2023/08/16 02:45:59;;;;;;;9.85;6.82;;;;;;;;;;5035292;28;20258;-74
2023/08/16 02:48:25;;;;;;;10.48;6.32;;;;;;;;;;5035325;28;20083;-74
2023/08/16 02:50:51;;;;;;;11.25;7.95;;;;;;;;;;5035201;28;20030;-74
2023/08/16 02:53:17;;;;;;;10.88;8.18;;;;;;;;;;5035229;28;20053;-74
2023/08/16 02:55:43;;;;;;;10.00;6.78;;;;;;;;;;5035077;28;20026;-74
2023/08/16 02:58:09;;;;;;;9.52;7.47;;;;;;;;;;5035197;28;20202;-74
2023/08/16 03:00:35;;;;;;;11.07;7.55;;;;;;;;;;5035167;28;20457;-74
2023/08/16 03:03:01;;;;;;;11.70;8.98;;;;;;;;;;5035037;28;20036;-74
2023/08/16 03:05:27;;;;;;;10.30;8.35;;;;;;;;;;5035029;28;20029;-74
2023/08/16 03:07:53;;;;;;;11.07;8.05;;;;;;;;;;5034830;28;20037;-75
2023/08/16 03:10:19;;;;;;;10.43;8.27;;;;;;;;;;5034883;28;20025;-75
2023/08/16 03:12:45;;;;;;;13.05;9.38;;;;;;;;;;5035178;28;20025;-75
2023/08/16 03:15:11;;;;;;;13.43;8.63;;;;;;;;;;5034809;28;20027;-74
2023/08/16 03:17:37;;;;;;;10.90;8.38;;;;;;;;;;5035160;28;20516;-74
2023/08/16 03:20:06;;;;;;;11.07;7.97;;;;;;;;;;5034708;28;20152;-74
2023/08/16 03:22:32;;;;;;;10.77;7.22;;;;;;;;;;5034977;28;20021;-74
2023/08/16 03:24:58;;;;;;;12.93;7.97;;;;;;;;;;5033801;28;20018;-74
2023/08/16 03:27:24;;;;;;;9.07;7.15;;;;;;;;;;5050023;28;20029;-74
2023/08/16 03:29:50;;;;;;;8.98;7.13;;;;;;;;;;5054545;28;20116;-74
2023/08/16 03:32:16;;;;;;;10.55;7.10;;;;;;;;;;5054313;28;20104;-74
2023/08/16 03:34:44;;;;;;;10.00;7.28;;;;;;;;;;5053581;28;20054;-74
2023/08/16 03:37:10;;;;;;;11.57;7.70;;;;;;;;;;5054214;28;20476;-74
2023/08/16 03:39:37;;;;;;;15.38;8.65;;;;;;;;;;5054278;28;20551;-74
2023/08/16 03:42:03;;;;;;;10.18;7.45;;;;;;;;;;5054458;28;20064;-74
2023/08/16 03:44:29;;;;;;;10.50;8.13;;;;;;;;;;5054204;28;20057;-74
2023/08/16 03:46:56;;;;;;;12.90;8.60;;;;;;;;;;5054069;28;20108;-74
2023/08/16 03:49:23;;;;;;;9.40;6.53;;;;;;;;;;5054411;28;20112;-74
2023/08/16 03:51:49;;;;;;;8.38;6.50;;;;;;;;;;5054203;28;20537;-74
2023/08/16 03:54:15;;;;;;;10.13;5.95;;;;;;;;;;5054026;28;20021;-74
2023/08/16 03:56:41;;;;;;;6.78;5.00;;;;;;;;;;5054014;28;20075;-74
2023/08/16 03:59:07;;;;;;;5.32;4.53;;;;;;;;;;5053763;28;20375;-75
2023/08/16 04:01:33;;;;;;;4.63;4.10;;;;;;;;;;5054047;28;20448;-74
2023/08/16 04:03:59;;;;;;;5.35;3.78;;;;;;;;;;5049173;28;20026;-74
2023/08/16 04:06:25;;;;;;;4.50;4.07;;;;;;;;;;5033444;28;20481;-74
2023/08/16 04:08:51;;;;;;;4.85;4.13;;;;;;;;;;5033652;28;20022;-74
2023/08/16 04:11:17;;;;;;;5.40;4.05;;;;;;;;;;5033604;28;20029;-74
2023/08/16 04:13:43;;;;;;;4.93;4.28;;;;;;;;;;5033613;28;20064;-74
2023/08/16 04:16:09;;;;;;;6.53;4.97;;;;;;;;;;5033480;28;20034;-74
2023/08/16 04:18:35;;;;;;;7.22;4.68;;;;;;;;;;5035494;28;20025;-74
2023/08/16 04:21:01;;;;;;;5.68;4.22;;;;;;;;;;5053562;28;20032;-74
2023/08/16 04:23:27;;;;;;;5.75;4.40;;;;;;;;;;5053536;28;20021;-74
2023/08/16 04:25:53;;;;;;;5.05;4.30;;;;;;;;;;5053242;28;20041;-74
2023/08/16 04:28:22;;;;;;;4.95;4.30;;;;;;;;;;5053393;28;20079;-75
2023/08/16 04:30:48;;;;;;;5.20;4.70;;;;;;;;;;5052100;28;20368;-75
2023/08/16 04:33:14;;;;;;;6.28;5.10;;;;;;;;;;5053087;28;20049;-75
2023/08/16 04:35:40;;;;;;;7.90;5.25;;;;;;;;;;5053268;28;20025;-74
2023/08/16 04:38:06;;;;;;;7.20;5.63;;;;;;;;;;5053379;28;20025;-74
2023/08/16 04:40:32;;;;;;;7.82;5.95;;;;;;;;;;5051838;28;20024;-74
2023/08/16 04:42:58;;;;;;;6.63;5.13;;;;;;;;;;5053138;28;20079;-75
2023/08/16 04:45:24;;;;;;;5.70;5.13;;;;;;;;;;5053075;28;20455;-74
2023/08/16 04:47:50;;;;;;;12.48;4.47;;;;;;;;;;5052896;28;20033;-75
2023/08/16 04:50:16;;;;;;;5.03;4.25;;;;;;;;;;5052961;28;20021;-74
2023/08/16 04:52:42;;;;;;;9.05;4.55;;;;;;;;;;5053254;28;20032;-74
2023/08/16 04:55:08;;;;;;;9.25;4.25;;;;;;;;;;5052952;28;20147;-75
2023/08/16 04:57:34;;;;;;;5.15;4.35;;;;;;;;;;5052857;28;20025;-74
2023/08/16 05:00:04;;;;;;;6.15;4.70;;;;;;;;;;5052809;28;20079;-74
2023/08/16 05:02:30;;;;;;;6.73;5.20;;;;;;;;;;5053123;28;20033;-74
2023/08/16 05:04:56;;;;;;;5.10;4.60;;;;;;;;;;5052686;28;20180;-74
2023/08/16 05:07:22;;;;;;;5.05;4.63;;;;;;;;;;5052625;28;20033;-74
2023/08/16 05:09:48;;;;;;;4.75;3.92;;;;;;;;;;5052763;28;20453;-73
2023/08/16 05:12:14;;;;;;;4.32;3.78;;;;;;;;;;5052682;28;20104;-73
2023/08/16 05:14:40;;;;;;;5.95;4.85;;;;;;;;;;5052618;28;20476;-73
2023/08/16 05:17:06;;;;;;;5.15;4.60;;;;;;;;;;5052623;28;20040;-73
2023/08/16 05:19:32;;;;;;;5.50;4.90;;;;;;;;;;5052532;28;20033;-73
2023/08/16 05:21:58;;;;;;;5.70;5.00;;;;;;;;;;5052460;28;20032;-73
2023/08/16 05:24:24;;;;;;;5.10;4.60;;;;;;;;;;5052418;28;20031;-72
2023/08/16 05:26:50;;;;;;;4.95;4.15;;;;;;;;;;5052313;28;20044;-73
2023/08/16 05:29:16;;;;;;;5.65;4.60;;;;;;;;;;5052407;28;20074;-72
2023/08/16 05:31:43;;;;;;;5.10;4.60;;;;;;;;;;5052301;28;20103;-73
2023/08/16 05:34:09;;;;;;;6.88;6.03;;;;;;;;;;5050992;28;20443;-73
2023/08/16 05:36:45;;;;;;;5.78;5.28;;;;;;;;;;5052579;28;20116;-73
2023/08/16 05:39:11;;;;;;;5.75;4.75;;;;;;;;;;5052354;28;20033;-73
2023/08/16 05:41:37;;;;;;;4.90;4.40;;;;;;;;;;5052629;28;20040;-73
2023/08/16 05:44:04;;;;;;;5.03;4.53;;;;;;;;;;5052205;28;20359;-74
2023/08/16 05:46:30;;;;;;;3.63;3.30;;;;;;;;;;5052042;28;20029;-75
2023/08/16 05:48:56;;;;;;;4.72;4.07;;;;;;;;;;5053745;28;20025;-74
2023/08/16 05:51:22;;;;;;;4.53;4.13;;;;;;;;;;5055226;28;20035;-74
2023/08/16 05:53:48;;;;;;;7.65;4.18;;;;;;;;;;5055843;28;20029;-74
2023/08/16 05:56:14;;;;;;;6.95;4.00;;;;;;;;;;5056006;28;20025;-74
2023/08/16 05:58:40;;;;;;;6.18;4.13;;;;;;;;;;5056515;28;20025;-75
2023/08/16 06:01:06;;;;;;;6.05;4.32;;;;;;;;;;5056164;28;20417;-75
2023/08/16 06:03:32;;;;;;;4.65;3.95;;;;;;;;;;5056151;28;20108;-75
2023/08/16 06:05:58;;;;;;;5.43;3.53;;;;;;;;;;5055999;28;20033;-75
2023/08/16 06:08:24;;;;;;;4.30;3.88;;;;;;;;;;5056106;28;20076;-75
2023/08/16 06:10:50;;;;;;;5.00;3.28;;;;;;;;;;5055937;28;20052;-75
2023/08/16 06:13:16;;;;;;;3.42;3.13;;;;;;;;;;5055940;28;20387;-75
2023/08/16 06:15:42;;;;;;;3.35;3.05;;;;;;;;;;5055848;28;20036;-75
2023/08/16 06:18:09;;;;;;;4.93;3.50;;;;;;;;;;5055763;28;20025;-75
2023/08/16 06:20:35;;;;;;;5.38;4.72;;;;;;;;;;5055842;28;20422;-75
2023/08/16 06:23:01;;;;;;;5.20;3.92;;;;;;;;;;5055532;28;20029;-75
2023/08/16 06:25:27;;;;;;;4.97;4.30;;;;;;;;;;5055452;28;20028;-75
2023/08/16 06:27:53;;;;;;;6.13;4.28;;;;;;;;;;5055193;28;20037;-75
2023/08/16 06:30:19;;;;;;;7.88;4.70;;;;;;;;;;5055922;28;20032;-74
2023/08/16 06:32:45;;;;;;;6.38;4.45;;;;;;;;;;5055133;28;20104;-74
2023/08/16 06:35:11;;;;;;;7.22;5.05;;;;;;;;;;5055376;28;20029;-74
2023/08/16 06:37:39;;;;;;;6.78;4.85;;;;;;;;;;5055459;28;20032;-74
2023/08/16 06:40:05;;;;;;;4.65;3.92;;;;;;;;;;5055468;28;20017;-74
2023/08/16 06:42:35;;;;;;;8.35;4.45;;;;;;;;;;5055300;28;20029;-74
2023/08/16 06:45:01;;;;;;;6.35;4.05;;;;;;;;;;5055374;28;20029;-75
2023/08/16 06:47:27;;;;;;;6.40;4.07;;;;;;;;;;5055176;28;20029;-74
2023/08/16 06:49:54;;;;;;;5.40;4.32;;;;;;;;;;5055280;28;20108;-73
2023/08/16 06:52:20;;;;;;;8.82;4.07;;;;;;;;;;5055241;28;20175;-74
2023/08/16 06:54:46;;;;;;;7.38;4.30;;;;;;;;;;5053914;28;20495;-74
2023/08/16 06:57:12;;;;;;;7.05;4.32;;;;;;;;;;5054846;28;20033;-75
2023/08/16 06:59:38;;;;;;;10.02;5.15;;;;;;;;;;5054167;28;20084;-74
2023/08/16 07:02:04;;;;;;;5.60;4.22;;;;;;;;;;5054646;28;20032;-75
2023/08/16 07:04:33;;;;;;;6.72;4.45;;;;;;;;;;5054672;28;20361;-75
2023/08/16 07:06:59;;;;;;;4.95;4.45;;;;;;;;;;5055107;28;20033;-75
2023/08/16 07:09:25;;;;;;;6.95;4.78;;;;;;;;;;5054910;28;20025;-75
2023/08/16 07:11:51;;;;;;;5.32;4.78;;;;;;;;;;5055149;28;20025;-75
2023/08/16 07:14:17;;;;;;;5.22;4.25;;;;;;;;;;5054776;28;20021;-75
2023/08/16 07:16:43;;;;;;;5.75;4.13;;;;;;;;;;5054754;28;20025;-75
2023/08/16 07:19:09;;;;;;;9.43;4.55;;;;;;;;;;5054255;28;20365;-74
2023/08/16 07:21:35;;;;;;;5.30;3.97;;;;;;;;;;5053254;28;20025;-75
2023/08/16 07:24:02;;;;;;;6.13;4.30;;;;;;;;;;5053600;28;20017;-74
2023/08/16 07:26:28;;;;;;;5.80;4.45;;;;;;;;;;5053833;28;20036;-75
2023/08/16 07:28:54;;;;;;;5.88;4.00;;;;;;;;;;5053493;28;20464;-74
2023/08/16 07:31:20;;;;;;;4.75;3.70;;;;;;;;;;5053582;28;20029;-74
2023/08/16 07:33:46;;;;;;;6.30;3.95;;;;;;;;;;5052848;28;20053;-74
2023/08/16 07:36:12;;;;;;;5.35;3.92;;;;;;;;;;5054613;28;20115;-75
2023/08/16 07:38:38;;;;;;;6.70;4.03;;;;;;;;;;5054391;28;20096;-75
2023/08/16 07:41:05;;;;;;;3.90;3.50;;;;;;;;;;5054573;28;20025;-75
2023/08/16 07:43:31;;;;;;;6.65;3.90;;;;;;;;;;5054496;28;20025;-75
2023/08/16 07:45:57;;;;;;;4.82;3.38;;;;;;;;;;5054192;28;20467;-75
2023/08/16 07:48:23;;;;;;;4.88;3.42;;;;;;;;;;5054276;28;20111;-75
2023/08/16 07:50:50;;;;;;;4.10;3.33;;;;;;;;;;5054447;28;20063;-75
2023/08/16 07:53:16;;;;;;;3.78;3.13;;;;;;;;;;5054078;28;20021;-75
2023/08/16 07:55:42;;;;;;;4.25;3.17;;;;;;;;;;5053977;28;20021;-75
2023/08/16 07:58:08;;;;;;;5.72;3.60;;;;;;;;;;5054030;28;20525;-75
2023/08/16 08:00:34;;;;;;;5.55;3.10;;;;;;;;;;5053897;28;20461;-75
2023/08/16 08:03:00;;;;;;;4.93;3.63;;;;;;;;;;5053849;28;20107;-75
2023/08/16 08:05:26;;;;;;;3.22;2.90;;;;;;;;;;5053908;28;20025;-75
2023/08/16 08:07:56;;;;;;;7.10;3.28;;;;;;;;;;5053734;28;20033;-75
2023/08/16 08:10:22;;;;;;;5.50;3.20;;;;;;;;;;5053761;28;20529;-75
2023/08/16 08:12:48;;;;;;;5.43;3.63;;;;;;;;;;5053570;28;20025;-75
2023/08/16 08:15:14;;;;;;;4.18;3.33;;;;;;;;;;5053604;28;20087;-75
2023/08/16 08:17:40;;;;;;;3.35;2.95;;;;;;;;;;5053555;28;20464;-75
2023/08/16 08:20:07;;;;;;;3.13;2.83;;;;;;;;;;5053521;28;20495;-74
2023/08/16 08:22:33;;;;;;;6.07;3.08;;;;;;;;;;5053732;28;20013;-75
2023/08/16 08:25:00;;;;;;;5.43;3.53;;;;;;;;;;5053369;28;20141;-75
2023/08/16 08:27:27;;;;;;;5.70;3.42;;;;;;;;;;5053114;28;20033;-75
2023/08/16 08:29:55;;;;;;;5.93;3.47;;;;;;;;;;5053243;28;20032;-75
2023/08/16 08:32:21;;;;;;;5.13;3.60;;;;;;;;;;5053651;28;20024;-75
2023/08/16 08:34:47;;;;;;;3.58;2.95;;;;;;;;;;5052527;28;20045;-75
2023/08/16 08:37:13;;;;;;;3.45;2.95;;;;;;;;;;5053381;28;20025;-75
2023/08/16 08:39:39;;;;;;;4.82;3.55;;;;;;;;;;5053981;28;20388;-75
2023/08/16 08:42:08;;;;;;;4.03;3.63;;;;;;;;;;5052508;28;20112;-75
2023/08/16 08:44:34;;;;;;;4.18;2.97;;;;;;;;;;5053479;28;20017;-75
2023/08/16 08:47:05;;;;;;;6.55;3.70;;;;;;;;;;5053733;28;20218;-75
2023/08/16 08:49:34;;;;;;;4.63;3.30;;;;;;;;;;5053951;28;20098;-75
2023/08/16 08:52:00;;;;;;;4.23;2.90;;;;;;;;;;5052482;28;20021;-75
2023/08/16 08:54:27;;;;;;;4.68;3.20;;;;;;;;;;5053123;28;20061;-75
2023/08/16 08:56:54;;;;;;;4.47;3.47;;;;;;;;;;5051927;28;20021;-75
2023/08/16 08:59:20;;;;;;;3.25;2.80;;;;;;;;;;5052875;28;20021;-75
2023/08/16 09:01:48;;;;;;;5.43;3.20;;;;;;;;;;5051657;28;20021;-75
2023/08/16 09:04:15;;;;;;;2.95;2.65;;;;;;;;;;5053010;28;20024;-75
2023/08/16 09:06:42;;;;;;;4.13;2.83;;;;;;;;;;5053027;28;20060;-75
2023/08/16 09:09:09;;;;;;;3.67;2.08;;;;;;;;;;5053043;28;20365;-75
2023/08/16 09:11:36;;;;;;;3.75;2.50;;;;;;;;;;5051552;28;20044;-75
2023/08/16 09:14:04;;;;;;;4.05;1.90;;;;;;;;;;5052963;28;20031;-75
2023/08/16 09:16:30;;;;;;;3.10;2.00;;;;;;;;;;5053277;28;20111;-75
2023/08/16 09:19:03;;;;;;;2.28;1.83;;;;;;;;;;5052699;28;20025;-74
2023/08/16 09:21:30;;;;;;;3.67;2.30;;;;;;;;;;5052873;28;20032;-75
2023/08/16 09:24:00;;;;;;;4.97;2.50;;;;;;;;;;5052162;28;20567;-75
2023/08/16 09:26:28;;;;;;;3.75;1.90;;;;;;;;;;5052661;28;20025;-75
2023/08/16 09:28:58;;;;;;;4.90;1.88;;;;;;;;;;5052575;28;20017;-75
2023/08/16 09:31:25;;;;;;;2.33;1.95;;;;;;;;;;5052447;28;20027;-75
2023/08/16 09:33:54;;;;;;;4.07;2.10;;;;;;;;;;5050152;28;20058;-75
2023/08/16 09:36:20;;;;;;;3.15;1.63;;;;;;;;;;5052759;28;20070;-75
2023/08/16 09:38:47;;;;;;;5.72;2.60;;;;;;;;;;5051095;28;20022;-75
2023/08/16 09:41:18;;;;;;;3.42;2.50;;;;;;;;;;5052527;28;20025;-75
2023/08/16 09:43:45;;;;;;;4.47;2.42;;;;;;;;;;5052776;28;20013;-75
2023/08/16 09:46:12;;;;;;;4.40;2.40;;;;;;;;;;5052591;28;20048;-75
2023/08/16 09:48:39;;;;;;;4.88;2.00;;;;;;;;;;5052605;28;20027;-75
2023/08/16 09:51:07;;;;;;;3.97;2.20;;;;;;;;;;5051398;28;20025;-75
2023/08/16 09:53:34;;;;;;;2.28;1.70;;;;;;;;;;5052996;28;20472;-75
2023/08/16 09:56:00;;;;;;;2.28;1.70;;;;;;;;;;5052416;28;20025;-74
2023/08/16 09:58:27;;;;;;;2.05;1.40;;;;;;;;;;5052376;28;20033;-75
2023/08/16 10:00:55;;;;;;;2.08;0.85;;;;;;;;;;5052503;28;20021;-75
2023/08/16 10:03:22;;;;;;;2.35;1.63;;;;;;;;;;5052554;28;20029;-75
2023/08/16 10:05:48;;;;;;;1.58;1.40;;;;;;;;;;5052304;28;20108;-75
2023/08/16 10:08:14;;;;;;;2.75;1.90;;;;;;;;;;5052405;28;20428;-75
2023/08/16 10:10:41;;;;;;;3.08;1.42;;;;;;;;;;5052334;28;20560;-74
2023/08/16 10:13:08;;;;;;;1.88;1.50;;;;;;;;;;5052135;28;20032;-74
2023/08/16 10:15:36;;;;;;;1.98;1.60;;;;;;;;;;5052591;28;20024;-74
2023/08/16 10:18:02;;;;;;;2.20;1.67;;;;;;;;;;5051878;28;20029;-75
2023/08/16 10:20:34;;;;;;;3.30;1.75;;;;;;;;;;5051971;28;20028;-74
2023/08/16 10:23:01;;;;;;;1.92;1.73;;;;;;;;;;5051967;28;20033;-74
2023/08/16 10:25:54;;;;;;;3.72;2.10;;;;;;;;;;5051904;28;20029;-74
2023/08/16 10:28:21;;;;;;;3.28;2.35;;;;;;;;;;5051481;28;20041;-74
2023/08/16 10:30:50;;;;;;;2.67;1.98;;;;;;;;;;5051740;28;20379;-75
2023/08/16 10:33:26;;;;;;;2.75;2.20;;;;;;;;;;5051093;28;20025;-75
2023/08/16 10:35:54;;;;;;;3.47;1.85;;;;;;;;;;5054628;28;20075;-74
2023/08/16 10:38:20;;;;;;;3.15;2.00;;;;;;;;;;5055511;28;20472;-74
2023/08/16 10:40:59;;;;;;;2.13;1.92;;;;;;;;;;5056370;28;20079;-74
2023/08/16 10:43:32;;;;;;;2.67;2.10;;;;;;;;;;5055588;28;20021;-74
2023/08/16 10:45:58;;;;;;;3.22;2.08;;;;;;;;;;5055255;28;20020;-74
2023/08/16 10:48:24;;;;;;;2.50;1.88;;;;;;;;;;5055367;28;20082;-74
2023/08/16 10:50:55;;;;;;;3.38;1.80;;;;;;;;;;5055261;28;20018;-74
2023/08/16 10:53:23;;;;;;;1.95;1.60;;;;;;;;;;5055201;28;20116;-74
2023/08/16 10:55:55;;;;;;;2.92;1.60;;;;;;;;;;5055383;28;20056;-74
2023/08/16 10:58:23;;;;;;;1.88;1.50;;;;;;;;;;5055303;28;20470;-74
2023/08/16 11:00:56;;;;;;;3.15;1.77;;;;;;;;;;5055361;28;20027;-74
2023/08/16 11:03:23;;;;;;;3.00;1.70;;;;;;;;;;5055295;28;20035;-74
2023/08/16 11:05:49;;;;;;;4.50;1.75;;;;;;;;;;5055074;28;20071;-74
2023/08/16 11:08:15;;;;;;;1.65;1.40;;;;;;;;;;5054906;28;20510;-74
2023/08/16 11:10:42;;;;;;;2.60;1.70;;;;;;;;;;5054938;28;20029;-74
2023/08/16 11:13:10;;;;;;;2.25;1.58;;;;;;;;;;5054860;28;20044;-74
2023/08/16 11:15:36;;;;;;;3.05;1.75;;;;;;;;;;5055064;28;20064;-74
2023/08/16 11:18:02;;;;;;;4.30;1.58;;;;;;;;;;5054827;28;20064;-74
2023/08/16 11:20:29;;;;;;;3.20;1.60;;;;;;;;;;5054701;28;20029;-74
2023/08/16 11:22:58;;;;;;;1.77;1.38;;;;;;;;;;5054499;28;20056;-74
2023/08/16 11:25:24;;;;;;;3.20;1.95;;;;;;;;;;5054211;28;20037;-74
2023/08/16 11:27:50;;;;;;;2.33;2.10;;;;;;;;;;5054532;28;20491;-74
2023/08/16 11:30:17;;;;;;;3.25;1.77;;;;;;;;;;5054598;28;20025;-74
2023/08/16 11:32:43;;;;;;;2.20;1.63;;;;;;;;;;5054458;28;20017;-74
2023/08/16 11:35:11;;;;;;;3.75;1.98;;;;;;;;;;5053132;28;20139;-74
2023/08/16 11:37:41;;;;;;;3.25;1.70;;;;;;;;;;5054620;28;20028;-74
2023/08/16 11:40:10;;;;;;;;;;;;;;;;;;5054845;28;20024;-74
2023/08/16 11:42:36;;;;;;;1.77;1.40;;;;;;;;;;5054303;28;20472;-74
2023/08/16 11:45:04;;;;;;;3.70;1.45;;;;;;;;;;5054292;28;20775;-74
2023/08/16 11:47:30;;;;;;;2.88;1.50;;;;;;;;;;5053376;28;20112;-74
2023/08/16 11:49:56;;;;;;;2.45;1.40;;;;;;;;;;5054064;28;20024;-75
2023/08/16 11:52:25;;;;;;;2.63;1.50;;;;;;;;;;5054108;28;20020;-74
2023/08/16 11:55:01;;;;;;;1.58;1.38;;;;;;;;;;5054162;28;20035;-74
2023/08/16 11:57:27;;;;;;;3.35;1.40;;;;;;;;;;5054173;28;20036;-74
2023/08/16 11:59:55;;;;;;;1.23;1.23;;;;;;;;;;5054002;28;20393;-74
2023/08/16 12:02:23;;;;;;;2.60;1.40;;;;;;;;;;5054193;28;20021;-74
2023/08/16 12:04:49;;;;;;;3.63;1.30;;;;;;;;;;5053961;28;20087;-74
2023/08/16 12:07:15;;;;;;;1.88;1.35;;;;;;;;;;5053870;28;20078;-74
2023/08/16 12:09:41;;;;;;;2.42;1.35;;;;;;;;;;5053826;28;20100;-74
2023/08/16 12:12:08;;;;;;;2.35;1.50;;;;;;;;;;5054035;28;20029;-74
2023/08/16 12:14:34;;;;;;;4.45;1.70;;;;;;;;;;5053539;28;20092;-74
2023/08/16 12:17:00;;;;;;;2.67;1.25;;;;;;;;;;5053521;28;20116;-75
2023/08/16 12:19:26;;;;;;;3.38;1.52;;;;;;;;;;5053672;28;20029;-74
2023/08/16 12:21:53;;;;;;;2.42;1.73;;;;;;;;;;5053820;28;20021;-74
2023/08/16 12:24:19;;;;;;;2.90;1.40;;;;;;;;;;5053638;28;20542;-74
2023/08/16 12:26:45;;;;;;;2.45;1.40;;;;;;;;;;5053436;28;20072;-74
2023/08/16 12:29:11;;;;;;;3.63;1.60;;;;;;;;;;5053651;28;20364;-74
2023/08/16 12:31:37;;;;;;;5.28;1.77;;;;;;;;;;5053243;28;20051;-74
2023/08/16 12:34:03;;;;;;;3.50;1.88;;;;;;;;;;5053186;28;20045;-74
2023/08/16 12:36:29;;;;;;;2.97;1.48;;;;;;;;;;5053152;28;20047;-73
2023/08/16 12:38:55;;;;;;;1.40;1.30;;;;;;;;;;5053387;28;20037;-74
2023/08/16 12:41:21;;;;;;;1.48;1.38;;;;;;;;;;5053184;28;20052;-74
2023/08/16 12:43:47;;;;;;;2.05;1.35;;;;;;;;;;5053031;28;20036;-74
2023/08/16 12:46:13;;;;;;;1.73;1.17;;;;;;;;;;5052837;28;20087;-74
2023/08/16 12:48:39;;;;;;;2.25;1.40;;;;;;;;;;5053264;28;20057;-74
2023/08/16 12:51:05;;;;;;;2.33;1.27;;;;;;;;;;5052884;28;20087;-74
2023/08/16 12:53:31;;;;;;;1.45;1.20;;;;;;;;;;5053431;28;20025;-74
2023/08/16 12:55:58;;;;;;;1.35;1.20;;;;;;;;;;5053276;28;20021;-75
2023/08/16 12:58:24;;;;;;;1.13;1.05;;;;;;;;;;5051706;28;20119;-74
2023/08/16 13:00:50;;;;;;;2.28;1.10;;;;;;;;;;5052883;28;20472;-74
2023/08/16 13:03:16;;;;;;;3.33;1.10;;;;;;;;;;5052875;28;20071;-74
2023/08/16 13:05:43;;;;;;;1.65;1.30;;;;;;;;;;5052844;28;20033;-73
2023/08/16 13:08:09;;;;;;;1.83;0.98;;;;;;;;;;5051602;28;20025;-74
2023/08/16 13:10:35;;;;;;;3.55;1.30;;;;;;;;;;5051630;28;20029;-74
2023/08/16 13:13:03;;;;;;;1.98;1.00;;;;;;;;;;5052990;28;20078;-74
2023/08/16 13:15:29;;;;;;;1.95;0.93;;;;;;;;;;5052942;28;20139;-74
2023/08/16 13:17:55;;;;;;;2.20;1.20;;;;;;;;;;5052940;28;20037;-74
2023/08/16 13:20:23;;;;;;;1.27;0.90;;;;;;;;;;5051893;28;20112;-74
2023/08/16 13:22:49;;;;;;;2.85;1.40;;;;;;;;;;5053138;28;20063;-74
2023/08/16 13:25:15;;;;;;;2.92;1.33;;;;;;;;;;5052869;28;20079;-74
2023/08/16 13:27:41;;;;;;;3.25;1.40;;;;;;;;;;5052460;28;20115;-74
2023/08/16 13:30:07;;;;;;;1.70;1.05;;;;;;;;;;5052453;28;20051;-74
2023/08/16 13:32:33;;;;;;;2.42;1.27;;;;;;;;;;5052594;28;20479;-74
2023/08/16 13:34:59;;;;;;;1.10;1.00;;;;;;;;;;5051551;28;20052;-74
2023/08/16 13:37:25;;;;;;;1.58;1.00;;;;;;;;;;5051564;28;20024;-74
2023/08/16 13:39:51;;;;;;;2.20;1.00;;;;;;;;;;5052500;28;20083;-74
2023/08/16 13:42:17;;;;;;;1.85;0.98;;;;;;;;;;5052816;28;20100;-74
2023/08/16 13:44:44;;;;;;;2.75;1.25;;;;;;;;;;5052184;28;20104;-74
2023/08/16 13:47:10;;;;;;;2.92;1.00;;;;;;;;;;5052722;28;20043;-74
2023/08/16 13:49:36;;;;;;;4.05;1.55;;;;;;;;;;5052503;28;20052;-74
2023/08/16 13:52:02;;;;;;;3.63;1.23;;;;;;;;;;5051229;28;20356;-74
2023/08/16 13:54:28;;;;;;;1.95;1.00;;;;;;;;;;5052393;28;20384;-74
2023/08/16 13:56:54;;;;;;;2.28;1.10;;;;;;;;;;5052525;28;20025;-75
2023/08/16 13:59:20;;;;;;;1.02;0.75;;;;;;;;;;5051116;28;20032;-74
2023/08/16 14:01:47;;;;;;;1.95;0.90;;;;;;;;;;5052527;28;20502;-74
2023/08/16 14:04:13;;;;;;;1.08;0.68;;;;;;;;;;5052540;28;20116;-75
2023/08/16 14:06:41;;;;;;;2.05;1.15;;;;;;;;;;5050879;28;20040;-74
2023/08/16 14:09:07;;;;;;;1.88;0.95;;;;;;;;;;5052552;28;20047;-74
2023/08/16 14:11:33;;;;;;;1.17;1.08;;;;;;;;;;5056267;28;20021;-74
2023/08/16 14:13:59;;;;;;;2.97;1.10;;;;;;;;;;5056172;28;20079;-74
2023/08/16 14:16:25;;;;;;;2.25;1.30;;;;;;;;;;5056346;28;20025;-73
2023/08/16 14:18:52;;;;;;;1.58;1.00;;;;;;;;;;5056383;28;20025;-74
2023/08/16 14:21:18;;;;;;;1.83;0.95;;;;;;;;;;5054734;28;20547;-74
2023/08/16 14:23:44;;;;;;;1.50;0.90;;;;;;;;;;5055914;28;20025;-74
2023/08/16 14:26:12;;;;;;;7.20;1.20;;;;;;;;;;5055336;28;20021;-74
2023/08/16 14:28:38;;;;;;;1.67;0.80;;;;;;;;;;5045387;28;20021;-73
2023/08/16 14:31:04;;;;;;;1.30;0.70;;;;;;;;;;5055769;28;20031;-73
2023/08/16 14:33:30;;;;;;;2.75;0.90;;;;;;;;;;5055025;28;20040;-73
2023/08/16 14:35:56;;;;;;;1.08;0.80;;;;;;;;;;5055994;28;20033;-73
2023/08/16 14:38:22;;;;;;;1.65;0.80;;;;;;;;;;5055519;28;20031;-72